Time;durP1;ratioP1;P1;durP2;ratioP2;P2;SDS_P1;SDS_P2;PMS_P1;PMS_P2;Temp;Humidity;BMP_temperature;BMP_pressure;BME280_temperature;BME280_humidity;BME280_pressure;Samples;Min_cycle;Max_cycle;Signal;HPM_P1;HPM_P2
2024/01/01 00:01:51;;;;;;;3.60;2.90;;;;;;;16.17;53.08;97463.66;105580;1253;72365;-39
2024/01/01 00:04:18;;;;;;;3.60;3.20;;;;;;;16.17;53.04;97460.52;105825;1257;61193;-38
2024/01/01 00:06:44;;;;;;;4.20;3.20;;;;;;;16.17;53.15;97463.45;105720;1253;61256;-38
2024/01/01 00:09:11;;;;;;;3.80;3.40;;;;;;;16.17;53.01;97461.22;105559;1259;74587;-39
2024/01/01 00:11:38;;;;;;;3.80;3.10;;;;;;;16.17;52.98;97452.10;105814;1257;65931;-39
2024/01/01 00:14:06;;;;;;;3.70;3.00;;;;;;;16.17;52.96;97454.27;105849;1253;72519;-38
2024/01/01 00:16:33;;;;;;;3.10;2.80;;;;;;;16.17;53.04;97450.72;105743;1257;61178;-39
2024/01/01 00:19:00;;;;;;;4.50;3.10;;;;;;;16.17;53.11;97446.31;105592;1257;61260;-39
2024/01/01 00:21:28;;;;;;;3.10;2.80;;;;;;;16.18;53.06;97445.25;105811;1254;74534;-38
2024/01/01 00:23:54;;;;;;;3.60;3.10;;;;;;;16.18;53.11;97445.64;105760;1259;64859;-38
2024/01/01 00:26:21;;;;;;;3.90;3.50;;;;;;;16.17;52.99;97442.31;105783;1254;72307;-39
2024/01/01 00:28:52;;;;;;;4.50;3.20;;;;;;;16.18;53.05;97445.34;105560;1259;61308;-39
2024/01/01 00:31:18;;;;;;;3.40;3.00;;;;;;;16.18;53.00;97444.48;105787;1259;61225;-39
2024/01/01 00:33:45;;;;;;;3.20;2.90;;;;;;;16.18;53.03;97442.02;105853;1257;74354;-39
2024/01/01 00:36:12;;;;;;;4.00;3.20;;;;;;;16.18;53.03;97438.86;105753;1259;66004;-37
2024/01/01 00:38:38;;;;;;;3.40;3.10;;;;;;;16.18;52.99;97440.08;105821;1254;72514;-38
2024/01/01 00:41:05;;;;;;;4.00;3.30;;;;;;;16.17;52.98;97433.05;105644;1259;61324;-38
2024/01/01 00:43:33;;;;;;;4.40;3.40;;;;;;;16.18;52.93;97426.04;105783;1257;61326;-38
2024/01/01 00:46:00;;;;;;;4.20;3.20;;;;;;;16.18;53.02;97431.52;105483;1257;74588;-39
2024/01/01 00:48:26;;;;;;;5.70;3.30;;;;;;;16.18;52.97;97425.66;105541;1257;65731;-38
2024/01/01 00:50:53;;;;;;;3.30;3.00;;;;;;;16.18;53.06;97416.48;105486;1253;71593;-39
2024/01/01 00:53:20;;;;;;;3.80;2.90;;;;;;;16.18;52.92;97408.27;105691;1255;61350;-39
2024/01/01 00:55:46;;;;;;;5.90;3.20;;;;;;;16.18;52.98;97409.52;105536;1258;61234;-39
2024/01/01 00:58:13;;;;;;;3.80;3.20;;;;;;;16.18;52.99;97405.74;105795;1254;73732;-38
2024/01/01 01:00:40;;;;;;;3.60;2.80;;;;;;;16.18;53.08;97407.20;105785;1259;66186;-38
2024/01/01 01:03:07;;;;;;;3.80;3.00;;;;;;;16.18;52.98;97402.58;105924;1259;72518;-39
2024/01/01 01:05:34;;;;;;;3.70;3.40;;;;;;;16.18;53.01;97395.55;105669;1267;61353;-39
2024/01/01 01:08:00;;;;;;;3.70;3.00;;;;;;;16.18;52.99;97396.64;106310;1258;61270;-39
2024/01/01 01:10:27;;;;;;;4.20;3.20;;;;;;;16.18;52.99;97390.38;105722;1259;74570;-39
2024/01/01 01:12:54;;;;;;;4.60;3.10;;;;;;;16.18;53.03;97389.77;105672;1256;66226;-39
2024/01/01 01:15:25;;;;;;;4.10;3.10;;;;;;;16.18;52.98;97382.73;105626;1258;172422;-39
2024/01/01 01:17:52;;;;;;;3.50;3.20;;;;;;;16.18;53.00;97379.34;105787;1257;61231;-39
2024/01/01 01:20:19;;;;;;;4.30;3.40;;;;;;;16.18;52.96;97379.58;105693;1258;61336;-39
2024/01/01 01:22:46;;;;;;;4.10;3.20;;;;;;;16.19;52.95;97371.17;105533;1259;74344;-39
2024/01/01 01:25:13;;;;;;;4.10;3.20;;;;;;;16.19;52.95;97366.86;105698;1260;65016;-39
2024/01/01 01:27:42;;;;;;;3.80;3.10;;;;;;;16.18;52.89;97363.30;105461;1254;72532;-39
2024/01/01 01:30:10;;;;;;;3.30;2.90;;;;;;;16.18;53.04;97368.16;105569;1258;63832;-39
2024/01/01 01:32:37;;;;;;;3.60;3.20;;;;;;;16.19;53.01;97360.37;105571;1253;61804;-38
2024/01/01 01:35:05;;;;;;;3.20;2.90;;;;;;;16.19;52.95;97357.91;105775;1256;74384;-39
2024/01/01 01:37:31;;;;;;;3.10;2.80;;;;;;;16.19;52.93;97351.34;105752;1258;65306;-39
2024/01/01 01:39:59;;;;;;;3.60;3.20;;;;;;;16.19;52.94;97347.79;105737;1260;72474;-39
2024/01/01 01:42:27;;;;;;;3.70;3.00;;;;;;;16.19;53.01;97346.56;105737;1258;61853;-39
2024/01/01 01:44:54;;;;;;;3.80;3.20;;;;;;;16.19;52.96;97348.48;105473;1253;61263;-39
2024/01/01 01:47:22;;;;;;;4.40;3.20;;;;;;;16.19;52.99;97345.92;105585;1257;74693;-39
2024/01/01 01:49:49;;;;;;;3.20;2.90;;;;;;;16.19;52.95;97337.52;105594;1258;65058;-39
2024/01/01 01:52:15;;;;;;;3.50;3.20;;;;;;;16.19;52.92;97341.55;105622;1258;72833;-39
2024/01/01 01:54:44;;;;;;;3.30;2.90;;;;;;;16.19;53.03;97336.36;105787;1257;61193;-38
2024/01/01 01:57:10;;;;;;;3.60;3.10;;;;;;;16.19;52.94;97332.20;105842;1257;61254;-38
2024/01/01 01:59:37;;;;;;;3.60;3.10;;;;;;;16.19;52.90;97327.72;105625;1262;74955;-38
2024/01/01 02:02:04;;;;;;;3.60;3.10;;;;;;;16.19;52.95;97322.95;105491;1268;65828;-40
2024/01/01 02:04:30;;;;;;;3.40;3.10;;;;;;;16.19;52.93;97322.55;105582;1257;72554;-40
2024/01/01 02:06:57;;;;;;;3.50;3.10;;;;;;;16.19;52.91;97317.29;105610;1257;61186;-39
2024/01/01 02:09:24;;;;;;;3.50;3.00;;;;;;;16.19;52.96;97314.75;105787;1259;61259;-39
2024/01/01 02:11:50;;;;;;;4.20;3.20;;;;;;;16.19;53.00;97307.04;105789;1259;74333;-39
2024/01/01 02:14:17;;;;;;;3.60;3.20;;;;;;;16.19;52.93;97305.41;105622;1258;66287;-39
2024/01/01 02:16:44;;;;;;;3.20;2.90;;;;;;;16.20;52.93;97305.36;105849;1259;72577;-39
2024/01/01 02:19:17;;;;;;;3.00;2.70;;;;;;;16.19;52.93;97294.36;105654;1267;61260;-39
2024/01/01 02:21:43;;;;;;;3.50;3.10;;;;;;;16.19;52.96;97289.92;105819;1254;61418;-38
2024/01/01 02:24:10;;;;;;;3.80;3.20;;;;;;;16.19;52.93;97287.29;105651;1257;74634;-39
2024/01/01 02:26:37;;;;;;;3.70;3.20;;;;;;;16.19;52.89;97284.20;105478;1254;66132;-39
2024/01/01 02:29:05;;;;;;;3.60;2.90;;;;;;;16.19;52.93;97282.65;105703;1258;72571;-39
2024/01/01 02:31:31;;;;;;;3.40;3.00;;;;;;;16.19;52.88;97280.27;105656;1259;61291;-38
2024/01/01 02:33:58;;;;;;;3.20;2.90;;;;;;;16.19;52.87;97277.71;105869;1254;61227;-39
2024/01/01 02:36:24;;;;;;;3.60;3.00;;;;;;;16.19;52.90;97272.83;105784;1254;74540;-39
2024/01/01 02:38:51;;;;;;;6.10;3.40;;;;;;;16.19;52.97;97269.52;105468;1259;66080;-39
2024/01/01 02:41:17;;;;;;;3.90;2.90;;;;;;;16.19;52.89;97271.46;105753;1257;72746;-39
2024/01/01 02:43:44;;;;;;;2.80;2.60;;;;;;;16.19;52.99;97270.54;105735;1257;61209;-39
2024/01/01 02:46:11;;;;;;;4.70;3.20;;;;;;;16.20;52.98;97260.34;105740;1255;61141;-39
2024/01/01 02:48:37;;;;;;;3.80;2.80;;;;;;;16.19;52.95;97256.64;105822;1259;74573;-39
2024/01/01 02:51:04;;;;;;;4.00;3.20;;;;;;;16.19;52.94;97253.78;105561;1259;65954;-39
2024/01/01 02:53:32;;;;;;;3.90;3.00;;;;;;;16.19;52.97;97255.40;105507;1258;72820;-38
2024/01/01 02:55:59;;;;;;;3.20;2.90;;;;;;;16.20;52.87;97255.71;105808;1256;61353;-38
2024/01/01 02:58:26;;;;;;;3.40;3.10;;;;;;;16.20;52.89;97250.01;105615;1254;61273;-38
2024/01/01 03:00:53;;;;;;;3.20;2.80;;;;;;;16.19;52.94;97246.53;105522;1257;74334;-38
2024/01/01 03:03:20;;;;;;;3.80;2.90;;;;;;;16.20;52.95;97248.39;105530;1257;66065;-38
2024/01/01 03:05:46;;;;;;;3.10;2.70;;;;;;;16.20;52.92;97242.38;105725;1258;72502;-38
2024/01/01 03:08:13;;;;;;;4.50;2.90;;;;;;;16.20;52.94;97236.42;105899;1259;61362;-38
2024/01/01 03:10:40;;;;;;;3.60;3.00;;;;;;;16.20;52.82;97236.52;105541;1259;61299;-38
2024/01/01 03:13:07;;;;;;;4.30;3.00;;;;;;;16.20;52.95;97235.34;105600;1254;75218;-38
2024/01/01 03:15:33;;;;;;;4.70;3.10;;;;;;;16.19;52.96;97230.48;105579;1257;63926;-38
2024/01/01 03:18:00;;;;;;;3.50;2.90;;;;;;;16.20;52.88;97229.94;106011;1254;72447;-40
2024/01/01 03:20:31;;;;;;;4.30;2.90;;;;;;;16.20;52.96;97228.16;105466;1257;61232;-40
2024/01/01 03:22:57;;;;;;;3.10;2.80;;;;;;;16.20;52.92;97232.48;106109;1254;61167;-40
2024/01/01 03:25:24;;;;;;;3.70;3.10;;;;;;;16.20;52.91;97228.73;105679;1257;74441;-38
2024/01/01 03:27:51;;;;;;;3.40;2.90;;;;;;;16.20;52.91;97235.90;105692;1259;66201;-39
2024/01/01 03:30:19;;;;;;;3.10;2.80;;;;;;;16.20;52.98;97235.19;105574;1254;72586;-39
2024/01/01 03:32:46;;;;;;;3.60;2.90;;;;;;;16.20;53.01;97234.50;105664;1257;61235;-38
2024/01/01 03:35:13;;;;;;;4.30;2.90;;;;;;;16.21;52.86;97231.76;105883;1257;62024;-38
2024/01/01 03:37:40;;;;;;;3.30;2.80;;;;;;;16.21;52.92;97219.61;105828;1257;74596;-38
2024/01/01 03:40:07;;;;;;;3.60;2.90;;;;;;;16.20;52.83;97207.03;105719;1256;65271;-38
2024/01/01 03:42:34;;;;;;;3.40;2.90;;;;;;;16.20;52.88;97212.27;105818;1254;72391;-38
2024/01/01 03:45:01;;;;;;;3.40;3.00;;;;;;;16.20;52.83;97210.02;105807;1258;61237;-39
2024/01/01 03:47:27;;;;;;;3.40;2.70;;;;;;;16.21;52.89;97211.29;105573;1256;61233;-39
2024/01/01 03:49:55;;;;;;;3.30;2.90;;;;;;;16.21;52.82;97210.59;105738;1257;74364;-39
2024/01/01 03:52:22;;;;;;;3.30;2.70;;;;;;;16.21;52.90;97212.75;105631;1261;65023;-39
2024/01/01 03:54:48;;;;;;;3.30;3.00;;;;;;;16.21;52.89;97208.20;105880;1254;72333;-39
2024/01/01 03:57:15;;;;;;;3.40;3.00;;;;;;;16.21;52.83;97207.66;105796;1256;61223;-38
2024/01/01 03:59:41;;;;;;;3.30;2.90;;;;;;;16.21;52.95;97198.00;105712;1257;61354;-38
2024/01/01 04:02:10;;;;;;;3.50;2.80;;;;;;;16.21;52.89;97193.98;105701;1260;74428;-38
2024/01/01 04:04:37;;;;;;;3.20;2.80;;;;;;;16.21;52.97;97186.59;105716;1260;66103;-38
2024/01/01 04:07:03;;;;;;;3.00;2.70;;;;;;;16.21;52.86;97184.65;105784;1257;73743;-38
2024/01/01 04:09:30;;;;;;;3.50;3.20;;;;;;;16.21;52.89;97179.18;105631;1266;61232;-39
2024/01/01 04:11:56;;;;;;;2.90;2.70;;;;;;;16.20;52.88;97181.15;105414;1254;61378;-39
2024/01/01 04:14:23;;;;;;;4.50;2.60;;;;;;;16.20;52.91;97177.84;105679;1254;61314;-38
2024/01/01 04:16:50;;;;;;;3.20;2.70;;;;;;;16.21;52.83;97174.31;105823;1259;66269;-38
2024/01/01 04:19:17;;;;;;;3.70;3.00;;;;;;;16.21;52.85;97167.61;105718;1254;72695;-39
2024/01/01 04:21:43;;;;;;;3.40;2.70;;;;;;;16.21;52.91;97169.01;105651;1257;61268;-39
2024/01/01 04:24:10;;;;;;;4.30;3.30;;;;;;;16.21;52.90;97165.84;105804;1257;61319;-39
2024/01/01 04:26:37;;;;;;;3.10;2.60;;;;;;;16.20;52.91;97162.95;105745;1257;61375;-39
2024/01/01 04:29:03;;;;;;;3.10;2.80;;;;;;;16.21;52.86;97157.64;105701;1259;66208;-39
2024/01/01 04:31:30;;;;;;;4.30;3.20;;;;;;;16.20;52.90;97156.23;105693;1259;72396;-39
2024/01/01 04:33:56;;;;;;;3.40;3.00;;;;;;;16.21;52.87;97154.32;105799;1257;61301;-39
2024/01/01 04:36:23;;;;;;;3.40;2.80;;;;;;;16.21;52.92;97157.18;105725;1253;61204;-39
2024/01/01 04:38:50;;;;;;;3.70;2.60;;;;;;;16.21;52.85;97151.62;105758;1253;73543;-39
2024/01/01 04:41:16;;;;;;;2.80;2.50;;;;;;;16.21;52.82;97144.75;105761;1256;61143;-39
2024/01/01 04:43:44;;;;;;;3.20;2.90;;;;;;;16.21;52.83;97144.50;105816;1254;72508;-39
2024/01/01 04:46:11;;;;;;;3.40;2.90;;;;;;;16.22;52.88;97144.45;105690;1257;61248;-39
2024/01/01 04:48:37;;;;;;;3.30;2.80;;;;;;;16.22;52.87;97145.39;105677;1257;61139;-39
2024/01/01 04:51:05;;;;;;;3.50;2.70;;;;;;;16.22;52.80;97139.38;105554;1257;74435;-39
2024/01/01 04:53:32;;;;;;;3.80;2.40;;;;;;;16.21;52.89;97132.65;105575;1258;66208;-39
2024/01/01 04:55:58;;;;;;;3.60;3.10;;;;;;;16.21;52.82;97133.50;105698;1254;72588;-39
2024/01/01 04:58:25;;;;;;;4.80;3.30;;;;;;;16.21;52.86;97132.27;105719;1257;61231;-38
2024/01/01 05:00:52;;;;;;;3.20;2.90;;;;;;;16.21;52.83;97130.27;105590;1254;61339;-39
2024/01/01 05:03:18;;;;;;;3.40;3.00;;;;;;;16.22;52.79;97125.02;105762;1264;74579;-39
2024/01/01 05:05:45;;;;;;;3.40;2.90;;;;;;;16.22;52.83;97124.79;105614;1257;67084;-39
2024/01/01 05:08:12;;;;;;;3.00;2.50;;;;;;;16.22;52.80;97122.77;105808;1254;72371;-39
2024/01/01 05:10:40;;;;;;;3.00;2.70;;;;;;;16.22;52.89;97122.48;105803;1257;61254;-38
2024/01/01 05:13:08;;;;;;;3.00;2.70;;;;;;;16.22;52.89;97121.94;106039;1254;61320;-39
2024/01/01 05:15:34;;;;;;;4.30;2.80;;;;;;;16.22;52.85;97121.77;105491;1255;74418;-39
2024/01/01 05:18:01;;;;;;;3.10;2.60;;;;;;;16.22;52.86;97121.17;105998;1256;64719;-39
2024/01/01 05:20:28;;;;;;;3.50;2.70;;;;;;;16.22;52.83;97125.96;105561;1254;72554;-39
2024/01/01 05:22:54;;;;;;;3.00;2.80;;;;;;;16.22;52.88;97124.56;105575;1257;61356;-39
2024/01/01 05:25:22;;;;;;;3.60;2.70;;;;;;;16.22;52.89;97126.65;105641;1254;61336;-39
2024/01/01 05:27:49;;;;;;;3.30;3.00;;;;;;;16.22;52.82;97125.95;105725;1256;74330;-39
2024/01/01 05:30:15;;;;;;;3.60;2.90;;;;;;;16.22;52.85;97126.27;105722;1257;61196;-39
2024/01/01 05:32:42;;;;;;;2.90;2.70;;;;;;;16.22;52.78;97121.65;105533;1254;72576;-38
2024/01/01 05:35:09;;;;;;;2.90;2.60;;;;;;;16.22;52.82;97125.41;105492;1258;61267;-39
2024/01/01 05:37:35;;;;;;;3.10;2.80;;;;;;;16.22;52.84;97120.86;105680;1255;61243;-39
2024/01/01 05:40:03;;;;;;;3.10;2.60;;;;;;;16.22;52.87;97118.94;105752;1255;74581;-38
2024/01/01 05:42:31;;;;;;;3.00;2.70;;;;;;;16.23;52.77;97111.23;105756;1257;65872;-38
2024/01/01 05:44:58;;;;;;;2.60;2.40;;;;;;;16.23;52.81;97112.45;105674;1255;72388;-39
2024/01/01 05:47:24;;;;;;;2.80;2.60;;;;;;;16.23;52.79;97112.39;105801;1257;61221;-40
2024/01/01 05:49:51;;;;;;;3.10;2.70;;;;;;;16.23;52.82;97108.84;105727;1254;61330;-40
2024/01/01 05:52:21;;;;;;;3.70;2.80;;;;;;;16.23;52.82;97108.45;105812;1260;74517;-40
2024/01/01 05:54:49;;;;;;;3.10;2.70;;;;;;;16.23;52.84;97112.15;105785;1256;65449;-38
2024/01/01 05:57:15;;;;;;;3.30;2.50;;;;;;;16.23;52.81;97105.37;105763;1254;72540;-37
2024/01/01 05:59:42;;;;;;;2.80;2.50;;;;;;;16.23;52.87;97109.00;105565;1257;61244;-38
2024/01/01 06:02:08;;;;;;;2.70;2.50;;;;;;;16.23;52.84;97107.52;105436;1255;61235;-38
2024/01/01 06:04:35;;;;;;;3.00;2.60;;;;;;;16.23;52.86;97106.29;105715;1257;74490;-38
2024/01/01 06:07:02;;;;;;;3.00;2.70;;;;;;;16.23;52.83;97106.61;105787;1257;66036;-38
2024/01/01 06:09:29;;;;;;;3.50;2.60;;;;;;;16.23;52.82;97107.47;105659;1254;72621;-38
2024/01/01 06:11:55;;;;;;;2.90;2.60;;;;;;;16.23;52.84;97102.13;105496;1256;61350;-39
2024/01/01 06:14:22;;;;;;;3.00;2.60;;;;;;;16.23;52.85;97102.66;105545;1254;61163;-38
2024/01/01 06:16:49;;;;;;;3.00;2.60;;;;;;;16.24;52.83;97103.67;105743;1254;74565;-38
2024/01/01 06:19:16;;;;;;;3.30;2.60;;;;;;;16.24;52.81;97104.22;105801;1257;66182;-38
2024/01/01 06:21:43;;;;;;;3.60;3.10;;;;;;;16.24;52.87;97104.23;105769;1254;72544;-38
2024/01/01 06:24:09;;;;;;;3.50;2.70;;;;;;;16.24;52.75;97107.10;105721;1254;61340;-38
2024/01/01 06:26:36;;;;;;;3.10;2.60;;;;;;;16.24;52.69;97109.11;105670;1254;61362;-38
2024/01/01 06:29:02;;;;;;;3.10;2.50;;;;;;;16.24;52.82;97109.42;105742;1257;74381;-38
2024/01/01 06:31:29;;;;;;;3.10;2.60;;;;;;;16.25;52.84;97104.48;105686;1256;65898;-38
2024/01/01 06:33:56;;;;;;;3.00;2.70;;;;;;;16.25;52.81;97106.73;105578;1254;72480;-38
2024/01/01 06:36:22;;;;;;;2.90;2.60;;;;;;;16.25;52.85;97104.86;105816;1257;61229;-38
2024/01/01 06:38:49;;;;;;;2.60;2.30;;;;;;;16.24;52.79;97104.55;105861;1254;61250;-38
2024/01/01 06:41:16;;;;;;;2.90;2.60;;;;;;;16.25;52.86;97103.02;105691;1257;74524;-38
2024/01/01 06:43:43;;;;;;;3.20;2.40;;;;;;;16.25;52.82;97102.95;105643;1257;66074;-39
2024/01/01 06:46:11;;;;;;;2.80;2.50;;;;;;;16.25;52.76;97099.39;105566;1254;72973;-39
2024/01/01 06:48:37;;;;;;;3.40;2.60;;;;;;;16.25;52.84;97100.32;105772;1257;61235;-38
2024/01/01 06:51:11;;;;;;;3.40;2.50;;;;;;;16.24;52.80;97103.47;105807;1254;61225;-38
2024/01/01 06:53:37;;;;;;;3.80;2.50;;;;;;;16.25;52.92;97103.56;105859;1257;74384;-38
2024/01/01 06:56:04;;;;;;;3.30;2.90;;;;;;;16.24;52.76;97100.08;105822;1257;61248;-38
2024/01/01 06:58:31;;;;;;;3.20;2.50;;;;;;;16.24;52.77;97097.69;105799;1254;72417;-38
2024/01/01 07:00:57;;;;;;;2.70;2.50;;;;;;;16.25;52.93;97092.75;105577;1257;61237;-38
2024/01/01 07:03:24;;;;;;;2.70;2.40;;;;;;;16.25;52.78;97093.13;105626;1254;61234;-39
2024/01/01 07:05:51;;;;;;;2.50;2.30;;;;;;;16.25;52.79;97089.20;105553;1263;74547;-38
2024/01/01 07:08:18;;;;;;;2.80;2.50;;;;;;;16.25;52.78;97089.36;105691;1257;63998;-38
2024/01/01 07:10:45;;;;;;;2.90;2.60;;;;;;;16.24;52.85;97084.88;105883;1254;72462;-38
2024/01/01 07:13:12;;;;;;;3.20;2.80;;;;;;;16.24;52.84;97084.95;105997;1257;61356;-39
2024/01/01 07:15:38;;;;;;;2.90;2.60;;;;;;;16.25;52.82;97086.42;105899;1254;61314;-38
2024/01/01 07:18:06;;;;;;;3.40;2.70;;;;;;;16.25;52.80;97086.27;106139;1252;74547;-38
2024/01/01 07:20:34;;;;;;;2.80;2.50;;;;;;;16.25;52.83;97086.34;105692;1253;66075;-38
2024/01/01 07:23:01;;;;;;;3.10;2.40;;;;;;;16.25;52.80;97085.65;105971;1254;72593;-39
2024/01/01 07:25:28;;;;;;;2.80;2.50;;;;;;;16.26;52.90;97084.98;105573;1257;61227;-38
2024/01/01 07:27:54;;;;;;;2.60;2.40;;;;;;;16.25;52.83;97085.19;106055;1253;61277;-38
2024/01/01 07:30:21;;;;;;;2.70;2.40;;;;;;;16.25;52.82;97081.86;105540;1257;74544;-38
2024/01/01 07:32:48;;;;;;;3.10;2.80;;;;;;;16.26;52.80;97079.95;105468;1257;66143;-38
2024/01/01 07:35:15;;;;;;;2.80;2.40;;;;;;;16.26;52.83;97082.66;105556;1254;72541;-38
2024/01/01 07:37:42;;;;;;;3.20;2.90;;;;;;;16.26;52.84;97082.14;105466;1257;61258;-38
2024/01/01 07:40:09;;;;;;;4.20;2.50;;;;;;;16.26;52.76;97083.35;105653;1254;61259;-38
2024/01/01 07:42:36;;;;;;;2.80;2.50;;;;;;;16.26;52.78;97087.46;105705;1257;74669;-39
2024/01/01 07:45:03;;;;;;;2.60;2.40;;;;;;;16.26;52.84;97082.36;105427;1259;66574;-38
2024/01/01 07:47:30;;;;;;;3.10;2.40;;;;;;;16.27;52.85;97086.93;105527;1254;72289;-40
2024/01/01 07:49:57;;;;;;;2.90;2.60;;;;;;;16.27;52.84;97083.16;105565;1254;61366;-38
2024/01/01 07:52:24;;;;;;;3.10;2.40;;;;;;;16.27;52.85;97085.61;105530;1253;61251;-39
2024/01/01 07:54:57;;;;;;;2.80;2.40;;;;;;;16.26;52.84;97085.30;105473;1257;74616;-39
2024/01/01 07:57:24;;;;;;;2.70;2.50;;;;;;;16.27;52.79;97077.28;105518;1257;64416;-39
2024/01/01 07:59:55;;;;;;;2.90;2.60;;;;;;;16.27;52.76;97075.81;105672;1254;72586;-39
2024/01/01 08:02:22;;;;;;;3.60;2.60;;;;;;;16.27;52.86;97070.03;105486;1256;61349;-38
2024/01/01 08:04:53;;;;;;;3.10;2.70;;;;;;;16.27;52.72;97067.93;105583;1254;61297;-39
2024/01/01 08:07:20;;;;;;;2.70;2.40;;;;;;;16.27;52.76;97069.95;105528;1254;74536;-40
2024/01/01 08:09:47;;;;;;;3.00;2.40;;;;;;;16.27;52.83;97070.41;105661;1257;66002;-38
2024/01/01 08:12:13;;;;;;;2.80;2.30;;;;;;;16.28;52.79;97071.13;105735;1254;61251;-38
2024/01/01 08:14:40;;;;;;;3.50;2.50;;;;;;;16.27;52.84;97073.80;105663;1257;61224;-39
2024/01/01 08:17:08;;;;;;;3.60;2.90;;;;;;;16.28;52.78;97077.17;105620;1254;61339;-38
2024/01/01 08:19:35;;;;;;;3.80;2.60;;;;;;;16.28;52.74;97075.55;105768;1256;74617;-38
2024/01/01 08:22:02;;;;;;;2.70;2.50;;;;;;;16.28;52.82;97077.48;105707;1257;66062;-39
2024/01/01 08:24:28;;;;;;;2.60;2.40;;;;;;;16.28;52.75;97079.48;105555;1257;72502;-37
2024/01/01 08:26:55;;;;;;;2.80;2.60;;;;;;;16.29;52.87;97076.66;105709;1257;61379;-38
2024/01/01 08:29:22;;;;;;;2.90;2.60;;;;;;;16.28;52.83;97072.21;105495;1253;61311;-40
2024/01/01 08:31:48;;;;;;;3.30;2.20;;;;;;;16.29;52.76;97073.80;105786;1253;74609;-38
2024/01/01 08:34:15;;;;;;;2.60;2.40;;;;;;;16.28;52.81;97067.82;105806;1257;66183;-38
2024/01/01 08:36:42;;;;;;;3.20;2.50;;;;;;;16.28;52.83;97065.95;105701;1253;72388;-38
2024/01/01 08:39:09;;;;;;;2.60;2.40;;;;;;;16.27;52.75;97072.11;105633;1257;61901;-38
2024/01/01 08:41:45;;;;;;;3.50;2.50;;;;;;;16.28;52.79;97067.34;105711;1252;61363;-39
2024/01/01 08:44:12;;;;;;;2.80;2.20;;;;;;;16.28;52.83;97068.66;105535;1257;74426;-38
2024/01/01 08:46:39;;;;;;;2.30;2.10;;;;;;;16.27;52.76;97064.79;105680;1256;66024;-40
2024/01/01 08:49:07;;;;;;;3.00;2.70;;;;;;;16.27;52.84;97064.77;105672;1253;72400;-39
2024/01/01 08:51:35;;;;;;;3.20;2.30;;;;;;;16.26;52.72;97061.76;105653;1253;61212;-39
2024/01/01 08:54:05;;;;;;;3.10;2.70;;;;;;;16.26;52.83;97053.56;105734;1254;61238;-39
2024/01/01 08:56:32;;;;;;;2.90;2.50;;;;;;;16.26;52.73;97051.47;105688;1252;73623;-39
2024/01/01 08:58:59;;;;;;;3.60;2.40;;;;;;;16.25;52.90;97049.92;105670;1256;65829;-39
2024/01/01 09:01:26;;;;;;;2.40;2.20;;;;;;;16.25;52.82;97047.20;105560;1253;72547;-39
2024/01/01 09:03:56;;;;;;;2.90;2.50;;;;;;;16.24;52.83;97043.95;105513;1256;61311;-39
2024/01/01 09:06:23;;;;;;;2.60;2.40;;;;;;;16.24;52.88;97041.77;105503;1257;61261;-38
2024/01/01 09:08:50;;;;;;;2.70;2.50;;;;;;;16.23;52.85;97038.35;105639;1257;74579;-38
2024/01/01 09:11:16;;;;;;;2.90;2.60;;;;;;;16.23;52.79;97035.66;105594;1257;65980;-38
2024/01/01 09:13:43;;;;;;;3.20;2.60;;;;;;;16.23;52.74;97037.90;105640;1253;72484;-38
2024/01/01 09:16:10;;;;;;;2.80;2.40;;;;;;;16.22;52.75;97037.27;105701;1256;61154;-38
2024/01/01 09:18:37;;;;;;;2.80;2.30;;;;;;;16.22;52.79;97033.94;105764;1253;61215;-38
2024/01/01 09:21:05;;;;;;;2.80;2.50;;;;;;;16.22;52.74;97031.99;105528;1254;74735;-40
2024/01/01 09:23:31;;;;;;;3.30;2.70;;;;;;;16.21;52.71;97029.66;105676;1256;65677;-39
2024/01/01 09:25:59;;;;;;;4.60;2.50;;;;;;;16.21;52.83;97022.95;105712;1253;72481;-38
2024/01/01 09:28:26;;;;;;;3.20;2.30;;;;;;;16.21;52.86;97023.63;105559;1257;61206;-38
2024/01/01 09:30:54;;;;;;;3.30;2.60;;;;;;;16.20;52.77;97023.23;105523;1253;61298;-38
2024/01/01 09:33:21;;;;;;;2.60;2.40;;;;;;;16.20;52.74;97017.20;105661;1254;74576;-38
2024/01/01 09:35:48;;;;;;;3.10;2.50;;;;;;;16.20;52.80;97017.58;105646;1257;66198;-38
2024/01/01 09:38:15;;;;;;;2.70;2.50;;;;;;;16.19;52.83;97017.65;105814;1253;72934;-38
2024/01/01 09:40:44;;;;;;;2.60;2.40;;;;;;;16.19;52.83;97015.09;105591;1256;61930;-38
2024/01/01 09:43:17;;;;;;;2.80;2.40;;;;;;;16.19;52.80;97020.58;105451;1252;61223;-38
2024/01/01 09:45:47;;;;;;;2.70;2.40;;;;;;;16.18;52.85;97022.95;105495;1254;74626;-39
2024/01/01 09:48:14;;;;;;;3.00;2.40;;;;;;;16.18;52.85;97015.01;105715;1257;66270;-38
2024/01/01 09:50:48;;;;;;;2.60;2.20;;;;;;;16.18;52.85;97016.77;105555;1253;72533;-39
2024/01/01 09:53:14;;;;;;;2.50;2.10;;;;;;;16.16;52.78;97012.57;105691;1253;61285;-39
2024/01/01 09:55:41;;;;;;;3.10;2.30;;;;;;;16.17;52.78;97008.79;105435;1254;61249;-38
2024/01/01 09:58:08;;;;;;;3.20;2.60;;;;;;;16.16;52.76;97001.90;105672;1253;74923;-38
2024/01/01 10:00:34;;;;;;;3.00;2.60;;;;;;;16.16;52.87;97004.69;105629;1257;65755;-39
2024/01/01 10:03:10;;;;;;;3.10;2.40;;;;;;;16.16;52.85;97009.69;105529;1257;72293;-39
2024/01/01 10:05:38;;;;;;;2.60;2.40;;;;;;;16.15;52.83;97004.77;105592;1253;61454;-38
2024/01/01 10:08:09;;;;;;;3.60;3.00;;;;;;;16.14;52.81;97002.58;106168;1253;61334;-38
2024/01/01 10:10:39;;;;;;;2.90;2.50;;;;;;;16.14;52.84;96998.07;105657;1253;73545;-38
2024/01/01 10:13:11;;;;;;;2.70;2.40;;;;;;;16.13;52.84;97000.29;106105;1257;67388;-38
2024/01/01 10:15:39;;;;;;;2.80;2.50;;;;;;;16.12;52.84;96996.88;105830;1253;72559;-38
2024/01/01 10:18:14;;;;;;;2.80;2.40;;;;;;;16.12;52.80;96991.23;105629;1258;61311;-38
2024/01/01 10:20:42;;;;;;;2.70;2.20;;;;;;;16.11;52.84;96987.98;105845;1253;61357;-40
2024/01/01 10:23:22;;;;;;;3.90;2.50;;;;;;;16.11;52.81;96984.59;105832;1254;74664;-40
2024/01/01 10:26:06;;;;;;;3.60;2.50;;;;;;;16.10;52.93;96980.17;105711;1256;66084;-39
2024/01/01 10:28:33;;;;;;;2.80;2.50;;;;;;;16.10;52.94;96974.45;105828;1253;72309;-38
2024/01/01 10:31:00;;;;;;;4.50;2.40;;;;;;;16.10;52.98;96974.13;105781;1257;61259;-39
2024/01/01 10:33:32;;;;;;;3.00;2.40;;;;;;;16.09;52.90;96968.86;105697;1256;61238;-39
2024/01/01 10:35:59;;;;;;;2.70;2.40;;;;;;;16.09;52.95;96967.22;105799;1254;74583;-39
2024/01/01 10:38:26;;;;;;;2.50;2.30;;;;;;;16.09;52.93;96961.45;105608;1257;66084;-39
2024/01/01 10:40:55;;;;;;;2.70;2.20;;;;;;;16.08;52.88;96959.05;105525;1253;72630;-38
2024/01/01 10:43:28;;;;;;;3.40;2.30;;;;;;;16.08;52.92;96955.50;105620;1256;61283;-39
2024/01/01 10:46:01;;;;;;;2.80;2.30;;;;;;;16.08;52.92;96952.34;105639;1253;61353;-38
2024/01/01 10:48:27;;;;;;;2.50;2.00;;;;;;;16.08;52.95;96948.54;105653;1253;73095;-39
2024/01/01 10:51:03;;;;;;;2.40;2.10;;;;;;;16.08;52.97;96942.14;105499;1257;65894;-39
2024/01/01 10:54:02;;;;;;;3.30;2.50;;;;;;;16.08;52.90;96937.66;105510;1253;72326;-39
2024/01/01 10:56:52;;;;;;;3.20;2.50;;;;;;;16.07;53.00;96928.23;105604;1257;61314;-38
2024/01/01 10:59:19;;;;;;;2.70;2.50;;;;;;;16.07;52.94;96926.06;105866;1252;61349;-38
2024/01/01 11:01:50;;;;;;;3.00;2.30;;;;;;;16.07;52.94;96917.42;105767;1252;74630;-38
2024/01/01 11:04:21;;;;;;;3.60;2.40;;;;;;;16.07;53.04;96918.19;105846;1257;66099;-38
2024/01/01 11:06:48;;;;;;;2.60;2.40;;;;;;;16.07;52.97;96913.72;105650;1256;73653;-38
2024/01/01 11:09:24;;;;;;;2.50;2.30;;;;;;;16.07;53.04;96911.08;105519;1257;61240;-39
2024/01/01 11:11:55;;;;;;;2.70;2.30;;;;;;;16.07;53.00;96905.30;105654;1253;61228;-39
2024/01/01 11:14:28;;;;;;;2.90;2.60;;;;;;;16.07;52.94;96907.61;105604;1254;74341;-39
2024/01/01 11:16:56;;;;;;;3.20;2.40;;;;;;;16.07;52.91;96901.35;105622;1256;65882;-39
2024/01/01 11:19:48;;;;;;;3.00;2.30;;;;;;;16.07;52.92;96902.75;105650;1252;72760;-39
2024/01/01 11:22:39;;;;;;;2.80;2.50;;;;;;;16.07;52.90;96896.97;105551;1252;61279;-39
2024/01/01 11:25:06;;;;;;;3.30;2.50;;;;;;;16.07;53.02;96894.48;105513;1253;61266;-40
2024/01/01 11:27:34;;;;;;;2.70;2.40;;;;;;;16.06;52.95;96895.33;105673;1254;74443;-38